sensor_id;sensor_type;location;lat;lon;timestamp;P1;durP1;ratioP1;P2;durP2;ratioP2
38208;SDS011;24016;52.102;11.584;2023-02-26T00:02:14;7.03;;;1.77;;
38208;SDS011;24016;52.102;11.584;2023-02-26T00:04:40;5.22;;;1.60;;
38208;SDS011;24016;52.102;11.584;2023-02-26T00:07:06;3.67;;;1.77;;
38208;SDS011;24016;52.102;11.584;2023-02-26T00:09:32;3.65;;;1.65;;
38208;SDS011;24016;52.102;11.584;2023-02-26T00:11:58;5.53;;;1.90;;
38208;SDS011;24016;52.102;11.584;2023-02-26T00:14:24;7.15;;;1.75;;
38208;SDS011;24016;52.102;11.584;2023-02-26T00:19:50;5.00;;;1.73;;
38208;SDS011;24016;52.102;11.584;2023-02-26T00:22:15;5.53;;;2.38;;
38208;SDS011;24016;52.102;11.584;2023-02-26T00:24:41;5.78;;;1.85;;
38208;SDS011;24016;52.102;11.584;2023-02-26T00:27:08;4.72;;;2.53;;
38208;SDS011;24016;52.102;11.584;2023-02-26T00:29:35;8.45;;;1.90;;
38208;SDS011;24016;52.102;11.584;2023-02-26T00:32:01;5.28;;;1.92;;
38208;SDS011;24016;52.102;11.584;2023-02-26T00:34:27;5.80;;;1.95;;
38208;SDS011;24016;52.102;11.584;2023-02-26T00:42:13;5.75;;;1.73;;
38208;SDS011;24016;52.102;11.584;2023-02-26T00:44:39;4.82;;;1.70;;
38208;SDS011;24016;52.102;11.584;2023-02-26T00:55:07;5.53;;;1.60;;
38208;SDS011;24016;52.102;11.584;2023-02-26T00:57:33;5.45;;;1.70;;
38208;SDS011;24016;52.102;11.584;2023-02-26T00:59:59;4.80;;;1.80;;
38208;SDS011;24016;52.102;11.584;2023-02-26T01:02:25;3.97;;;1.63;;
38208;SDS011;24016;52.102;11.584;2023-02-26T01:04:51;5.63;;;1.55;;
38208;SDS011;24016;52.102;11.584;2023-02-26T01:07:17;6.97;;;1.48;;
38208;SDS011;24016;52.102;11.584;2023-02-26T01:09:48;5.30;;;1.50;;
38208;SDS011;24016;52.102;11.584;2023-02-26T01:12:13;3.25;;;1.40;;
38208;SDS011;24016;52.102;11.584;2023-02-26T01:14:41;5.32;;;1.40;;
38208;SDS011;24016;52.102;11.584;2023-02-26T01:19:52;6.05;;;2.33;;
38208;SDS011;24016;52.102;11.584;2023-02-26T01:22:28;6.05;;;1.80;;
38208;SDS011;24016;52.102;11.584;2023-02-26T01:25:21;4.35;;;1.75;;
38208;SDS011;24016;52.102;11.584;2023-02-26T01:28:04;5.13;;;1.60;;
38208;SDS011;24016;52.102;11.584;2023-02-26T01:30:30;3.03;;;1.45;;
38208;SDS011;24016;52.102;11.584;2023-02-26T01:33:01;4.70;;;1.55;;
38208;SDS011;24016;52.102;11.584;2023-02-26T01:35:56;3.60;;;1.45;;
38208;SDS011;24016;52.102;11.584;2023-02-26T01:38:40;5.13;;;1.67;;
38208;SDS011;24016;52.102;11.584;2023-02-26T01:41:26;4.28;;;1.50;;
38208;SDS011;24016;52.102;11.584;2023-02-26T01:46:36;6.35;;;1.55;;
38208;SDS011;24016;52.102;11.584;2023-02-26T01:49:16;5.75;;;1.48;;
38208;SDS011;24016;52.102;11.584;2023-02-26T01:51:44;4.53;;;1.45;;
38208;SDS011;24016;52.102;11.584;2023-02-26T01:54:13;4.15;;;1.63;;
38208;SDS011;24016;52.102;11.584;2023-02-26T01:56:39;4.35;;;1.45;;
38208;SDS011;24016;52.102;11.584;2023-02-26T01:59:06;3.78;;;1.42;;
38208;SDS011;24016;52.102;11.584;2023-02-26T02:01:35;3.05;;;1.55;;
38208;SDS011;24016;52.102;11.584;2023-02-26T02:04:03;4.13;;;1.60;;
38208;SDS011;24016;52.102;11.584;2023-02-26T02:06:30;6.25;;;1.60;;
38208;SDS011;24016;52.102;11.584;2023-02-26T02:08:55;4.32;;;1.40;;
38208;SDS011;24016;52.102;11.584;2023-02-26T02:11:21;6.97;;;1.70;;
38208;SDS011;24016;52.102;11.584;2023-02-26T02:14:02;5.65;;;1.83;;
38208;SDS011;24016;52.102;11.584;2023-02-26T02:25:19;5.13;;;1.38;;
38208;SDS011;24016;52.102;11.584;2023-02-26T02:31:27;5.10;;;1.33;;
38208;SDS011;24016;52.102;11.584;2023-02-26T02:37:00;3.35;;;1.30;;
38208;SDS011;24016;52.102;11.584;2023-02-26T02:39:32;4.00;;;1.48;;
38208;SDS011;24016;52.102;11.584;2023-02-26T02:42:40;4.10;;;1.65;;
38208;SDS011;24016;52.102;11.584;2023-02-26T02:45:00;2.83;;;1.33;;
38208;SDS011;24016;52.102;11.584;2023-02-26T02:48:04;5.93;;;1.70;;
38208;SDS011;24016;52.102;11.584;2023-02-26T02:50:45;2.97;;;1.60;;
38208;SDS011;24016;52.102;11.584;2023-02-26T02:53:16;3.97;;;1.67;;
38208;SDS011;24016;52.102;11.584;2023-02-26T02:55:46;4.18;;;1.40;;
38208;SDS011;24016;52.102;11.584;2023-02-26T02:58:19;5.85;;;1.83;;
38208;SDS011;24016;52.102;11.584;2023-02-26T03:00:49;4.85;;;1.50;;
38208;SDS011;24016;52.102;11.584;2023-02-26T03:05:48;4.60;;;1.85;;
38208;SDS011;24016;52.102;11.584;2023-02-26T03:08:15;3.10;;;1.60;;
38208;SDS011;24016;52.102;11.584;2023-02-26T03:10:44;3.78;;;1.60;;
38208;SDS011;24016;52.102;11.584;2023-02-26T03:13:14;5.95;;;1.92;;
38208;SDS011;24016;52.102;11.584;2023-02-26T03:15:59;5.28;;;1.58;;
38208;SDS011;24016;52.102;11.584;2023-02-26T03:18:49;4.90;;;1.70;;
38208;SDS011;24016;52.102;11.584;2023-02-26T03:24:01;3.80;;;1.55;;
38208;SDS011;24016;52.102;11.584;2023-02-26T03:26:40;3.13;;;1.52;;
38208;SDS011;24016;52.102;11.584;2023-02-26T03:29:16;5.70;;;1.90;;
38208;SDS011;24016;52.102;11.584;2023-02-26T03:34:26;4.38;;;1.23;;
38208;SDS011;24016;52.102;11.584;2023-02-26T03:37:03;3.17;;;1.73;;
38208;SDS011;24016;52.102;11.584;2023-02-26T03:39:55;4.93;;;1.73;;
38208;SDS011;24016;52.102;11.584;2023-02-26T03:42:27;3.55;;;1.60;;
38208;SDS011;24016;52.102;11.584;2023-02-26T03:44:59;2.20;;;1.33;;
38208;SDS011;24016;52.102;11.584;2023-02-26T03:47:28;3.70;;;1.67;;
38208;SDS011;24016;52.102;11.584;2023-02-26T03:50:02;4.55;;;1.80;;
38208;SDS011;24016;52.102;11.584;2023-02-26T03:52:40;5.05;;;1.60;;
38208;SDS011;24016;52.102;11.584;2023-02-26T03:55:13;3.78;;;1.65;;
38208;SDS011;24016;52.102;11.584;2023-02-26T03:57:42;4.90;;;1.73;;
38208;SDS011;24016;52.102;11.584;2023-02-26T04:00:08;3.97;;;1.45;;
38208;SDS011;24016;52.102;11.584;2023-02-26T04:02:40;3.90;;;1.80;;
38208;SDS011;24016;52.102;11.584;2023-02-26T04:05:16;4.63;;;1.52;;
38208;SDS011;24016;52.102;11.584;2023-02-26T04:07:44;2.88;;;1.48;;
38208;SDS011;24016;52.102;11.584;2023-02-26T04:10:13;2.63;;;1.33;;
38208;SDS011;24016;52.102;11.584;2023-02-26T04:12:41;3.58;;;1.50;;
38208;SDS011;24016;52.102;11.584;2023-02-26T04:15:07;2.92;;;1.40;;
38208;SDS011;24016;52.102;11.584;2023-02-26T04:17:33;3.67;;;1.70;;
38208;SDS011;24016;52.102;11.584;2023-02-26T04:19:58;5.30;;;2.10;;
38208;SDS011;24016;52.102;11.584;2023-02-26T04:22:24;3.97;;;2.00;;
38208;SDS011;24016;52.102;11.584;2023-02-26T04:24:49;5.88;;;2.10;;
38208;SDS011;24016;52.102;11.584;2023-02-26T04:27:15;4.55;;;1.65;;
38208;SDS011;24016;52.102;11.584;2023-02-26T04:29:40;3.92;;;1.45;;
38208;SDS011;24016;52.102;11.584;2023-02-26T04:32:06;4.22;;;1.50;;
38208;SDS011;24016;52.102;11.584;2023-02-26T04:34:31;4.05;;;1.45;;
38208;SDS011;24016;52.102;11.584;2023-02-26T04:36:57;3.65;;;1.30;;
38208;SDS011;24016;52.102;11.584;2023-02-26T04:39:22;5.43;;;1.90;;
38208;SDS011;24016;52.102;11.584;2023-02-26T04:41:48;4.32;;;1.33;;
38208;SDS011;24016;52.102;11.584;2023-02-26T04:44:13;5.22;;;1.40;;
38208;SDS011;24016;52.102;11.584;2023-02-26T04:46:39;3.67;;;1.27;;
38208;SDS011;24016;52.102;11.584;2023-02-26T04:49:04;2.58;;;1.30;;
38208;SDS011;24016;52.102;11.584;2023-02-26T04:51:30;3.30;;;1.75;;
38208;SDS011;24016;52.102;11.584;2023-02-26T04:53:55;4.40;;;2.05;;
38208;SDS011;24016;52.102;11.584;2023-02-26T04:56:21;4.32;;;2.05;;
38208;SDS011;24016;52.102;11.584;2023-02-26T04:58:46;2.72;;;1.45;;
38208;SDS011;24016;52.102;11.584;2023-02-26T05:01:12;5.22;;;1.33;;
38208;SDS011;24016;52.102;11.584;2023-02-26T05:03:38;4.47;;;1.38;;
38208;SDS011;24016;52.102;11.584;2023-02-26T05:06:03;3.30;;;1.50;;
38208;SDS011;24016;52.102;11.584;2023-02-26T05:08:29;4.88;;;1.40;;
38208;SDS011;24016;52.102;11.584;2023-02-26T05:10:55;3.95;;;1.33;;
38208;SDS011;24016;52.102;11.584;2023-02-26T05:13:20;4.30;;;1.13;;
38208;SDS011;24016;52.102;11.584;2023-02-26T05:15:46;4.15;;;1.50;;
38208;SDS011;24016;52.102;11.584;2023-02-26T05:18:11;4.60;;;1.38;;
38208;SDS011;24016;52.102;11.584;2023-02-26T05:20:37;4.13;;;1.40;;
38208;SDS011;24016;52.102;11.584;2023-02-26T05:23:03;3.60;;;1.50;;
38208;SDS011;24016;52.102;11.584;2023-02-26T05:25:28;4.05;;;1.48;;
38208;SDS011;24016;52.102;11.584;2023-02-26T05:27:54;2.90;;;1.30;;
38208;SDS011;24016;52.102;11.584;2023-02-26T05:30:19;2.08;;;1.00;;
38208;SDS011;24016;52.102;11.584;2023-02-26T05:32:45;3.65;;;1.40;;
38208;SDS011;24016;52.102;11.584;2023-02-26T05:35:11;2.47;;;1.30;;
38208;SDS011;24016;52.102;11.584;2023-02-26T05:37:37;3.03;;;1.23;;
38208;SDS011;24016;52.102;11.584;2023-02-26T05:40:03;3.45;;;1.48;;
38208;SDS011;24016;52.102;11.584;2023-02-26T05:42:30;3.35;;;1.35;;
38208;SDS011;24016;52.102;11.584;2023-02-26T05:44:56;3.95;;;2.25;;
38208;SDS011;24016;52.102;11.584;2023-02-26T05:47:21;3.47;;;1.70;;
38208;SDS011;24016;52.102;11.584;2023-02-26T05:49:47;6.65;;;3.08;;
38208;SDS011;24016;52.102;11.584;2023-02-26T05:52:13;4.72;;;2.28;;
38208;SDS011;24016;52.102;11.584;2023-02-26T05:54:38;5.47;;;1.80;;
38208;SDS011;24016;52.102;11.584;2023-02-26T05:57:04;3.78;;;1.17;;
38208;SDS011;24016;52.102;11.584;2023-02-26T05:59:29;3.38;;;1.75;;
38208;SDS011;24016;52.102;11.584;2023-02-26T06:01:55;2.78;;;1.55;;
38208;SDS011;24016;52.102;11.584;2023-02-26T06:04:20;2.78;;;1.35;;
38208;SDS011;24016;52.102;11.584;2023-02-26T06:06:46;2.80;;;1.02;;
38208;SDS011;24016;52.102;11.584;2023-02-26T06:09:12;3.30;;;1.20;;
38208;SDS011;24016;52.102;11.584;2023-02-26T06:11:37;5.00;;;2.60;;
38208;SDS011;24016;52.102;11.584;2023-02-26T06:14:04;4.38;;;2.17;;
38208;SDS011;24016;52.102;11.584;2023-02-26T06:16:30;3.13;;;1.25;;
38208;SDS011;24016;52.102;11.584;2023-02-26T06:18:56;3.45;;;1.27;;
38208;SDS011;24016;52.102;11.584;2023-02-26T06:21:22;3.28;;;1.33;;
38208;SDS011;24016;52.102;11.584;2023-02-26T06:23:47;2.88;;;1.20;;
38208;SDS011;24016;52.102;11.584;2023-02-26T06:26:13;5.35;;;1.20;;
38208;SDS011;24016;52.102;11.584;2023-02-26T06:28:38;3.22;;;1.00;;
38208;SDS011;24016;52.102;11.584;2023-02-26T06:31:04;3.35;;;1.30;;
38208;SDS011;24016;52.102;11.584;2023-02-26T06:33:29;6.72;;;1.42;;
38208;SDS011;24016;52.102;11.584;2023-02-26T06:35:55;3.47;;;1.48;;
38208;SDS011;24016;52.102;11.584;2023-02-26T06:38:22;5.10;;;1.92;;
38208;SDS011;24016;52.102;11.584;2023-02-26T06:40:48;4.43;;;1.42;;
38208;SDS011;24016;52.102;11.584;2023-02-26T06:43:13;5.07;;;1.52;;
38208;SDS011;24016;52.102;11.584;2023-02-26T06:45:39;3.50;;;1.63;;
38208;SDS011;24016;52.102;11.584;2023-02-26T06:48:04;2.72;;;1.33;;
38208;SDS011;24016;52.102;11.584;2023-02-26T06:50:30;5.20;;;1.67;;
38208;SDS011;24016;52.102;11.584;2023-02-26T06:52:56;3.67;;;1.15;;
38208;SDS011;24016;52.102;11.584;2023-02-26T06:55:21;3.22;;;1.08;;
38208;SDS011;24016;52.102;11.584;2023-02-26T06:57:50;3.38;;;1.42;;
38208;SDS011;24016;52.102;11.584;2023-02-26T07:00:19;1.83;;;1.10;;
38208;SDS011;24016;52.102;11.584;2023-02-26T07:02:45;2.20;;;1.10;;
38208;SDS011;24016;52.102;11.584;2023-02-26T07:05:11;2.30;;;1.17;;
38208;SDS011;24016;52.102;11.584;2023-02-26T07:07:37;3.50;;;1.67;;
38208;SDS011;24016;52.102;11.584;2023-02-26T07:10:03;3.08;;;1.42;;
38208;SDS011;24016;52.102;11.584;2023-02-26T07:12:29;2.13;;;1.10;;
38208;SDS011;24016;52.102;11.584;2023-02-26T07:14:54;3.45;;;1.23;;
38208;SDS011;24016;52.102;11.584;2023-02-26T07:17:20;1.83;;;1.20;;
38208;SDS011;24016;52.102;11.584;2023-02-26T07:19:46;1.92;;;1.10;;
38208;SDS011;24016;52.102;11.584;2023-02-26T07:22:13;2.20;;;0.98;;
38208;SDS011;24016;52.102;11.584;2023-02-26T07:24:38;2.30;;;1.65;;
38208;SDS011;24016;52.102;11.584;2023-02-26T07:27:05;2.97;;;1.40;;
38208;SDS011;24016;52.102;11.584;2023-02-26T07:29:30;3.88;;;1.42;;
38208;SDS011;24016;52.102;11.584;2023-02-26T07:31:55;4.93;;;1.55;;
38208;SDS011;24016;52.102;11.584;2023-02-26T07:34:21;4.57;;;1.60;;
38208;SDS011;24016;52.102;11.584;2023-02-26T07:36:46;6.47;;;2.30;;
38208;SDS011;24016;52.102;11.584;2023-02-26T07:39:12;3.78;;;1.98;;
38208;SDS011;24016;52.102;11.584;2023-02-26T07:41:38;3.50;;;1.75;;
38208;SDS011;24016;52.102;11.584;2023-02-26T07:44:03;2.58;;;1.17;;
38208;SDS011;24016;52.102;11.584;2023-02-26T07:46:29;3.53;;;1.20;;
38208;SDS011;24016;52.102;11.584;2023-02-26T07:48:54;3.72;;;1.60;;
38208;SDS011;24016;52.102;11.584;2023-02-26T07:51:20;2.25;;;1.23;;
38208;SDS011;24016;52.102;11.584;2023-02-26T07:53:45;1.40;;;1.00;;
38208;SDS011;24016;52.102;11.584;2023-02-26T07:56:11;3.92;;;1.13;;
38208;SDS011;24016;52.102;11.584;2023-02-26T07:58:36;1.75;;;0.88;;
38208;SDS011;24016;52.102;11.584;2023-02-26T08:01:02;1.23;;;0.80;;
38208;SDS011;24016;52.102;11.584;2023-02-26T08:03:28;2.60;;;1.10;;
38208;SDS011;24016;52.102;11.584;2023-02-26T08:05:56;1.70;;;1.00;;
38208;SDS011;24016;52.102;11.584;2023-02-26T08:08:24;1.60;;;1.20;;
38208;SDS011;24016;52.102;11.584;2023-02-26T08:10:50;1.65;;;0.90;;
38208;SDS011;24016;52.102;11.584;2023-02-26T08:13:15;2.38;;;1.10;;
38208;SDS011;24016;52.102;11.584;2023-02-26T08:15:41;1.70;;;1.00;;
38208;SDS011;24016;52.102;11.584;2023-02-26T08:18:07;3.67;;;1.92;;
38208;SDS011;24016;52.102;11.584;2023-02-26T08:20:33;1.90;;;1.08;;
38208;SDS011;24016;52.102;11.584;2023-02-26T08:22:59;1.73;;;0.88;;
38208;SDS011;24016;52.102;11.584;2023-02-26T08:25:25;1.00;;;0.60;;
38208;SDS011;24016;52.102;11.584;2023-02-26T08:27:51;1.42;;;0.90;;
38208;SDS011;24016;52.102;11.584;2023-02-26T08:30:16;3.05;;;0.98;;
38208;SDS011;24016;52.102;11.584;2023-02-26T08:32:42;5.20;;;0.82;;
38208;SDS011;24016;52.102;11.584;2023-02-26T08:35:09;4.25;;;1.00;;
38208;SDS011;24016;52.102;11.584;2023-02-26T08:37:36;3.97;;;0.93;;
38208;SDS011;24016;52.102;11.584;2023-02-26T08:40:02;1.98;;;1.05;;
38208;SDS011;24016;52.102;11.584;2023-02-26T08:42:30;3.25;;;1.13;;
38208;SDS011;24016;52.102;11.584;2023-02-26T08:44:55;3.13;;;0.90;;
38208;SDS011;24016;52.102;11.584;2023-02-26T08:47:21;1.25;;;0.70;;
38208;SDS011;24016;52.102;11.584;2023-02-26T08:49:46;1.73;;;1.10;;
38208;SDS011;24016;52.102;11.584;2023-02-26T08:52:12;1.15;;;0.80;;
38208;SDS011;24016;52.102;11.584;2023-02-26T08:54:37;1.42;;;0.77;;
38208;SDS011;24016;52.102;11.584;2023-02-26T08:57:03;2.80;;;0.90;;
38208;SDS011;24016;52.102;11.584;2023-02-26T08:59:28;2.92;;;0.80;;
38208;SDS011;24016;52.102;11.584;2023-02-26T09:01:54;1.70;;;0.70;;
38208;SDS011;24016;52.102;11.584;2023-02-26T09:04:19;2.28;;;1.00;;
38208;SDS011;24016;52.102;11.584;2023-02-26T09:06:45;1.23;;;0.70;;
38208;SDS011;24016;52.102;11.584;2023-02-26T09:09:11;2.45;;;0.85;;
38208;SDS011;24016;52.102;11.584;2023-02-26T09:11:36;1.80;;;1.02;;
38208;SDS011;24016;52.102;11.584;2023-02-26T09:14:02;3.30;;;0.93;;
38208;SDS011;24016;52.102;11.584;2023-02-26T09:16:29;2.80;;;1.30;;
38208;SDS011;24016;52.102;11.584;2023-02-26T09:18:55;1.95;;;0.95;;
38208;SDS011;24016;52.102;11.584;2023-02-26T09:21:21;2.60;;;0.63;;
38208;SDS011;24016;52.102;11.584;2023-02-26T09:23:47;1.65;;;0.82;;
38208;SDS011;24016;52.102;11.584;2023-02-26T09:26:13;2.25;;;0.90;;
38208;SDS011;24016;52.102;11.584;2023-02-26T09:28:39;2.28;;;1.08;;
38208;SDS011;24016;52.102;11.584;2023-02-26T09:31:04;1.35;;;0.90;;
38208;SDS011;24016;52.102;11.584;2023-02-26T09:33:33;3.25;;;0.95;;
38208;SDS011;24016;52.102;11.584;2023-02-26T09:36:00;3.40;;;0.98;;
38208;SDS011;24016;52.102;11.584;2023-02-26T09:38:26;2.15;;;0.90;;
38208;SDS011;24016;52.102;11.584;2023-02-26T09:40:55;2.58;;;1.10;;
38208;SDS011;24016;52.102;11.584;2023-02-26T09:43:38;2.38;;;1.00;;
38208;SDS011;24016;52.102;11.584;2023-02-26T09:46:46;1.10;;;0.80;;
38208;SDS011;24016;52.102;11.584;2023-02-26T09:51:53;2.80;;;1.00;;
38208;SDS011;24016;52.102;11.584;2023-02-26T09:54:26;2.75;;;0.88;;
38208;SDS011;24016;52.102;11.584;2023-02-26T09:56:57;3.08;;;0.88;;
38208;SDS011;24016;52.102;11.584;2023-02-26T09:59:26;1.40;;;0.82;;
38208;SDS011;24016;52.102;11.584;2023-02-26T10:02:10;1.83;;;0.80;;
38208;SDS011;24016;52.102;11.584;2023-02-26T10:05:39;1.67;;;0.80;;
38208;SDS011;24016;52.102;11.584;2023-02-26T10:10:58;2.17;;;0.70;;
38208;SDS011;24016;52.102;11.584;2023-02-26T10:13:43;2.42;;;1.08;;
38208;SDS011;24016;52.102;11.584;2023-02-26T10:16:19;4.90;;;0.90;;
38208;SDS011;24016;52.102;11.584;2023-02-26T10:18:50;2.47;;;0.90;;
38208;SDS011;24016;52.102;11.584;2023-02-26T10:21:21;2.63;;;0.90;;
38208;SDS011;24016;52.102;11.584;2023-02-26T10:24:00;3.00;;;0.80;;
38208;SDS011;24016;52.102;11.584;2023-02-26T10:26:34;4.22;;;1.00;;
38208;SDS011;24016;52.102;11.584;2023-02-26T10:32:03;2.10;;;1.10;;
38208;SDS011;24016;52.102;11.584;2023-02-26T10:34:53;3.85;;;1.15;;
38208;SDS011;24016;52.102;11.584;2023-02-26T10:42:39;2.20;;;0.77;;
38208;SDS011;24016;52.102;11.584;2023-02-26T10:45:57;2.38;;;0.90;;
38208;SDS011;24016;52.102;11.584;2023-02-26T10:48:24;3.17;;;1.00;;
38208;SDS011;24016;52.102;11.584;2023-02-26T10:51:00;1.33;;;0.80;;
38208;SDS011;24016;52.102;11.584;2023-02-26T10:53:44;3.88;;;0.95;;
38208;SDS011;24016;52.102;11.584;2023-02-26T10:56:16;2.72;;;1.02;;
38208;SDS011;24016;52.102;11.584;2023-02-26T10:58:48;2.83;;;1.20;;
38208;SDS011;24016;52.102;11.584;2023-02-26T11:01:16;2.42;;;1.13;;
38208;SDS011;24016;52.102;11.584;2023-02-26T11:03:45;1.70;;;0.85;;
38208;SDS011;24016;52.102;11.584;2023-02-26T11:06:20;3.50;;;0.80;;
38208;SDS011;24016;52.102;11.584;2023-02-26T11:08:48;1.80;;;0.75;;
38208;SDS011;24016;52.102;11.584;2023-02-26T11:12:01;1.73;;;0.77;;
38208;SDS011;24016;52.102;11.584;2023-02-26T11:14:14;1.95;;;0.98;;
38208;SDS011;24016;52.102;11.584;2023-02-26T11:16:41;2.40;;;0.80;;
38208;SDS011;24016;52.102;11.584;2023-02-26T11:19:28;3.73;;;0.93;;
38208;SDS011;24016;52.102;11.584;2023-02-26T11:21:57;2.80;;;1.27;;
38208;SDS011;24016;52.102;11.584;2023-02-26T11:24:30;1.80;;;0.85;;
38208;SDS011;24016;52.102;11.584;2023-02-26T11:26:59;1.88;;;0.80;;
38208;SDS011;24016;52.102;11.584;2023-02-26T11:29:29;1.67;;;0.80;;
38208;SDS011;24016;52.102;11.584;2023-02-26T11:32:14;2.28;;;0.90;;
38208;SDS011;24016;52.102;11.584;2023-02-26T11:34:45;2.00;;;0.90;;
38208;SDS011;24016;52.102;11.584;2023-02-26T11:37:12;1.15;;;0.60;;
38208;SDS011;24016;52.102;11.584;2023-02-26T11:39:43;2.90;;;0.93;;
38208;SDS011;24016;52.102;11.584;2023-02-26T11:42:09;2.03;;;0.82;;
38208;SDS011;24016;52.102;11.584;2023-02-26T11:44:44;1.50;;;0.70;;
38208;SDS011;24016;52.102;11.584;2023-02-26T11:47:15;1.75;;;0.95;;
38208;SDS011;24016;52.102;11.584;2023-02-26T11:49:49;2.58;;;0.90;;
38208;SDS011;24016;52.102;11.584;2023-02-26T11:52:21;1.73;;;0.75;;
38208;SDS011;24016;52.102;11.584;2023-02-26T11:55:18;1.50;;;0.80;;
38208;SDS011;24016;52.102;11.584;2023-02-26T11:57:51;1.33;;;0.80;;
38208;SDS011;24016;52.102;11.584;2023-02-26T12:00:31;1.80;;;0.65;;
38208;SDS011;24016;52.102;11.584;2023-02-26T12:03:01;2.28;;;0.90;;
38208;SDS011;24016;52.102;11.584;2023-02-26T12:05:32;1.55;;;0.80;;
38208;SDS011;24016;52.102;11.584;2023-02-26T12:07:58;3.03;;;0.93;;
38208;SDS011;24016;52.102;11.584;2023-02-26T12:10:27;1.45;;;0.65;;
38208;SDS011;24016;52.102;11.584;2023-02-26T12:15:46;2.38;;;0.85;;
38208;SDS011;24016;52.102;11.584;2023-02-26T12:18:26;1.33;;;0.75;;
38208;SDS011;24016;52.102;11.584;2023-02-26T12:21:21;1.05;;;0.60;;
38208;SDS011;24016;52.102;11.584;2023-02-26T12:27:02;1.58;;;0.70;;
38208;SDS011;24016;52.102;11.584;2023-02-26T12:40:43;1.77;;;0.95;;
38208;SDS011;24016;52.102;11.584;2023-02-26T12:43:17;1.67;;;0.80;;
38208;SDS011;24016;52.102;11.584;2023-02-26T12:46:07;2.30;;;1.00;;
38208;SDS011;24016;52.102;11.584;2023-02-26T12:48:47;3.33;;;0.70;;
38208;SDS011;24016;52.102;11.584;2023-02-26T12:51:49;2.70;;;0.80;;
38208;SDS011;24016;52.102;11.584;2023-02-26T12:54:34;1.50;;;0.60;;
38208;SDS011;24016;52.102;11.584;2023-02-26T12:59:58;1.67;;;1.00;;
38208;SDS011;24016;52.102;11.584;2023-02-26T13:02:35;1.65;;;0.80;;
38208;SDS011;24016;52.102;11.584;2023-02-26T13:27:03;0.95;;;0.60;;
38208;SDS011;24016;52.102;11.584;2023-02-26T13:29:31;2.20;;;1.05;;
38208;SDS011;24016;52.102;11.584;2023-02-26T13:32:23;1.98;;;0.80;;
38208;SDS011;24016;52.102;11.584;2023-02-26T13:37:31;2.13;;;0.90;;
38208;SDS011;24016;52.102;11.584;2023-02-26T13:40:19;1.63;;;0.88;;
38208;SDS011;24016;52.102;11.584;2023-02-26T13:42:53;1.00;;;0.63;;
38208;SDS011;24016;52.102;11.584;2023-02-26T13:45:37;1.70;;;0.88;;
38208;SDS011;24016;52.102;11.584;2023-02-26T13:48:20;1.40;;;0.60;;
38208;SDS011;24016;52.102;11.584;2023-02-26T13:51:12;1.88;;;0.60;;
38208;SDS011;24016;52.102;11.584;2023-02-26T13:53:53;2.78;;;1.20;;
38208;SDS011;24016;52.102;11.584;2023-02-26T13:56:41;1.48;;;0.70;;
38208;SDS011;24016;52.102;11.584;2023-02-26T14:06:51;1.88;;;1.00;;
38208;SDS011;24016;52.102;11.584;2023-02-26T14:09:29;2.10;;;0.98;;
38208;SDS011;24016;52.102;11.584;2023-02-26T14:12:22;5.10;;;2.47;;
38208;SDS011;24016;52.102;11.584;2023-02-26T14:17:34;2.30;;;1.10;;
38208;SDS011;24016;52.102;11.584;2023-02-26T14:22:57;3.22;;;1.25;;
38208;SDS011;24016;52.102;11.584;2023-02-26T14:25:33;1.95;;;1.05;;
38208;SDS011;24016;52.102;11.584;2023-02-26T14:33:30;1.40;;;0.70;;
38208;SDS011;24016;52.102;11.584;2023-02-26T14:36:01;2.78;;;0.95;;
38208;SDS011;24016;52.102;11.584;2023-02-26T14:38:30;2.92;;;1.42;;
38208;SDS011;24016;52.102;11.584;2023-02-26T14:41:02;2.78;;;1.60;;
38208;SDS011;24016;52.102;11.584;2023-02-26T14:43:39;2.85;;;1.15;;
38208;SDS011;24016;52.102;11.584;2023-02-26T14:46:07;2.80;;;1.65;;
38208;SDS011;24016;52.102;11.584;2023-02-26T14:48:34;2.33;;;0.82;;
38208;SDS011;24016;52.102;11.584;2023-02-26T14:51:09;1.92;;;1.20;;
38208;SDS011;24016;52.102;11.584;2023-02-26T14:53:50;2.22;;;1.00;;
38208;SDS011;24016;52.102;11.584;2023-02-26T14:59:13;3.13;;;1.50;;
38208;SDS011;24016;52.102;11.584;2023-02-26T15:02:01;3.30;;;1.10;;
38208;SDS011;24016;52.102;11.584;2023-02-26T15:05:03;4.28;;;2.30;;
38208;SDS011;24016;52.102;11.584;2023-02-26T15:07:56;1.55;;;1.00;;
38208;SDS011;24016;52.102;11.584;2023-02-26T15:16:06;1.67;;;1.00;;
38208;SDS011;24016;52.102;11.584;2023-02-26T15:18:49;1.02;;;0.80;;
38208;SDS011;24016;52.102;11.584;2023-02-26T15:24:21;3.83;;;1.23;;
38208;SDS011;24016;52.102;11.584;2023-02-26T15:26:52;4.03;;;1.00;;
38208;SDS011;24016;52.102;11.584;2023-02-26T15:29:24;1.25;;;1.00;;
38208;SDS011;24016;52.102;11.584;2023-02-26T15:31:54;2.15;;;1.38;;
38208;SDS011;24016;52.102;11.584;2023-02-26T15:34:24;1.90;;;1.17;;
38208;SDS011;24016;52.102;11.584;2023-02-26T15:36:51;2.83;;;1.10;;
38208;SDS011;24016;52.102;11.584;2023-02-26T15:39:18;3.58;;;2.25;;
38208;SDS011;24016;52.102;11.584;2023-02-26T15:41:47;1.30;;;0.90;;
38208;SDS011;24016;52.102;11.584;2023-02-26T15:44:22;2.15;;;0.90;;
38208;SDS011;24016;52.102;11.584;2023-02-26T15:46:53;2.10;;;1.02;;
38208;SDS011;24016;52.102;11.584;2023-02-26T15:49:32;3.47;;;1.10;;
38208;SDS011;24016;52.102;11.584;2023-02-26T15:52:03;2.63;;;1.13;;
38208;SDS011;24016;52.102;11.584;2023-02-26T15:54:34;5.22;;;1.30;;
38208;SDS011;24016;52.102;11.584;2023-02-26T15:57:11;1.75;;;0.85;;
38208;SDS011;24016;52.102;11.584;2023-02-26T15:59:41;2.95;;;1.23;;
38208;SDS011;24016;52.102;11.584;2023-02-26T16:02:13;1.73;;;0.95;;
38208;SDS011;24016;52.102;11.584;2023-02-26T16:04:54;2.25;;;0.90;;
38208;SDS011;24016;52.102;11.584;2023-02-26T16:07:19;2.05;;;0.95;;
38208;SDS011;24016;52.102;11.584;2023-02-26T16:09:47;2.40;;;1.17;;
38208;SDS011;24016;52.102;11.584;2023-02-26T16:12:16;1.45;;;1.08;;
38208;SDS011;24016;52.102;11.584;2023-02-26T16:14:45;1.58;;;0.82;;
38208;SDS011;24016;52.102;11.584;2023-02-26T16:17:18;3.25;;;1.10;;
38208;SDS011;24016;52.102;11.584;2023-02-26T16:19:50;3.80;;;1.20;;
38208;SDS011;24016;52.102;11.584;2023-02-26T16:22:22;2.42;;;1.23;;
38208;SDS011;24016;52.102;11.584;2023-02-26T16:25:03;2.05;;;1.00;;
38208;SDS011;24016;52.102;11.584;2023-02-26T16:27:31;4.43;;;1.35;;
38208;SDS011;24016;52.102;11.584;2023-02-26T16:29:59;2.40;;;1.10;;
38208;SDS011;24016;52.102;11.584;2023-02-26T16:32:27;2.50;;;1.20;;
38208;SDS011;24016;52.102;11.584;2023-02-26T16:34:56;2.83;;;1.00;;
38208;SDS011;24016;52.102;11.584;2023-02-26T16:39:57;2.53;;;1.00;;
38208;SDS011;24016;52.102;11.584;2023-02-26T16:42:36;2.42;;;1.20;;
38208;SDS011;24016;52.102;11.584;2023-02-26T16:45:14;4.85;;;1.30;;
38208;SDS011;24016;52.102;11.584;2023-02-26T16:47:49;3.22;;;1.40;;
38208;SDS011;24016;52.102;11.584;2023-02-26T16:50:19;4.30;;;1.65;;
38208;SDS011;24016;52.102;11.584;2023-02-26T16:52:56;2.92;;;1.33;;
38208;SDS011;24016;52.102;11.584;2023-02-26T16:55:25;1.95;;;1.38;;
38208;SDS011;24016;52.102;11.584;2023-02-26T16:57:53;3.65;;;1.42;;
38208;SDS011;24016;52.102;11.584;2023-02-26T17:00:21;1.77;;;1.02;;
38208;SDS011;24016;52.102;11.584;2023-02-26T17:03:01;2.05;;;0.93;;
38208;SDS011;24016;52.102;11.584;2023-02-26T17:05:52;2.30;;;1.13;;
38208;SDS011;24016;52.102;11.584;2023-02-26T17:08:23;1.48;;;0.82;;
38208;SDS011;24016;52.102;11.584;2023-02-26T17:11:02;1.58;;;0.98;;
38208;SDS011;24016;52.102;11.584;2023-02-26T17:13:31;1.58;;;1.00;;